Time;durP1;ratioP1;P1;durP2;ratioP2;P2;SDS_P1;SDS_P2;PMS_P1;PMS_P2;Temp;Humidity;BMP_temperature;BMP_pressure;BME280_temperature;BME280_humidity;BME280_pressure;Samples;Min_cycle;Max_cycle;Signal;HPM_P1;HPM_P2
2023/10/01 00:01:20;;;;;;;17.13;10.35;;;;;;;;;;5055996;28;20052;-79
2023/10/01 00:03:47;;;;;;;13.15;10.38;;;;;;;;;;5055874;28;20083;-79
2023/10/01 00:06:13;;;;;;;15.10;10.75;;;;;;;;;;5056193;28;20045;-79
2023/10/01 00:08:39;;;;;;;13.48;10.15;;;;;;;;;;5055911;28;20041;-79
2023/10/01 00:11:05;;;;;;;14.10;10.55;;;;;;;;;;5039256;28;20040;-79
2023/10/01 00:13:31;;;;;;;18.92;10.95;;;;;;;;;;5039276;28;20099;-79
2023/10/01 00:15:57;;;;;;;15.38;10.13;;;;;;;;;;5040005;28;20044;-79
2023/10/01 00:18:25;;;;;;;17.15;11.10;;;;;;;;;;5040796;28;20388;-79
2023/10/01 00:20:51;;;;;;;12.73;10.13;;;;;;;;;;5059909;28;20146;-79
2023/10/01 00:23:17;;;;;;;12.10;10.85;;;;;;;;;;5077983;28;20057;-79
2023/10/01 00:25:45;;;;;;;19.42;11.80;;;;;;;;;;5059809;28;20127;-79
2023/10/01 00:28:11;;;;;;;14.85;11.82;;;;;;;;;;5077449;28;20055;-79
2023/10/01 00:30:37;;;;;;;14.82;11.68;;;;;;;;;;5042826;28;20403;-79
2023/10/01 00:33:10;;;;;;;13.00;11.00;;;;;;;;;;5060438;28;20040;-79
2023/10/01 00:35:40;;;;;;;14.57;12.18;;;;;;;;;;5077315;28;20044;-79
2023/10/01 00:38:07;;;;;;;14.30;12.43;;;;;;;;;;5059534;28;20439;-79
2023/10/01 00:40:33;;;;;;;15.40;13.10;;;;;;;;;;5059327;28;20416;-79
2023/10/01 00:42:59;;;;;;;16.25;12.73;;;;;;;;;;5059333;28;20060;-79
2023/10/01 00:45:25;;;;;;;15.43;12.25;;;;;;;;;;5060275;28;20064;-79
2023/10/01 00:47:52;;;;;;;14.07;12.57;;;;;;;;;;5059438;28;20049;-79
2023/10/01 00:50:21;;;;;;;15.00;13.43;;;;;;;;;;5059410;28;20048;-79
2023/10/01 00:52:49;;;;;;;16.55;13.82;;;;;;;;;;5059581;28;20052;-79
2023/10/01 00:55:16;;;;;;;16.92;12.52;;;;;;;;;;5042963;28;20048;-79
2023/10/01 00:57:42;;;;;;;14.02;12.63;;;;;;;;;;5058837;28;20047;-79
2023/10/01 01:00:15;;;;;;;15.55;13.38;;;;;;;;;;5026272;28;20465;-79
2023/10/01 01:02:47;;;;;;;16.30;13.05;;;;;;;;;;5042401;28;20492;-79
2023/10/01 01:05:20;;;;;;;15.20;13.75;;;;;;;;;;5059006;28;20044;-79
2023/10/01 01:07:47;;;;;;;15.52;13.35;;;;;;;;;;5043711;28;20477;-79
2023/10/01 01:10:18;;;;;;;16.30;13.20;;;;;;;;;;5059726;28;20053;-79
2023/10/01 01:12:51;;;;;;;18.92;14.35;;;;;;;;;;5042953;28;20044;-79
2023/10/01 01:15:19;;;;;;;15.13;13.52;;;;;;;;;;5059101;28;20060;-79
2023/10/01 01:17:45;;;;;;;15.90;13.88;;;;;;;;;;5042180;28;20048;-79
2023/10/01 01:20:13;;;;;;;15.32;13.77;;;;;;;;;;5058515;28;20625;-79
2023/10/01 01:22:39;;;;;;;17.45;13.98;;;;;;;;;;5067551;28;20056;-79
2023/10/01 01:25:19;;;;;;;15.68;13.95;;;;;;;;;;5078701;28;20036;-79
2023/10/01 01:27:46;;;;;;;14.65;13.13;;;;;;;;;;5079557;28;20040;-79
2023/10/01 01:30:18;;;;;;;14.77;13.27;;;;;;;;;;5060789;28;20139;-79
2023/10/01 01:32:47;;;;;;;16.65;14.57;;;;;;;;;;5078845;28;20123;-79
2023/10/01 01:35:13;;;;;;;17.05;13.95;;;;;;;;;;5079237;28;20101;-79
2023/10/01 01:37:48;;;;;;;14.60;12.80;;;;;;;;;;5078819;28;20073;-79
2023/10/01 01:40:25;;;;;;;15.07;12.93;;;;;;;;;;5078348;28;20090;-79
2023/10/01 01:42:56;;;;;;;15.20;13.60;;;;;;;;;;5062544;28;20070;-79
2023/10/01 01:45:27;;;;;;;14.15;12.65;;;;;;;;;;5078367;28;20109;-79
2023/10/01 01:47:53;;;;;;;16.10;14.07;;;;;;;;;;5079216;28;20052;-79
2023/10/01 01:50:26;;;;;;;18.63;14.27;;;;;;;;;;5061587;28;20055;-79
2023/10/01 01:52:56;;;;;;;19.98;15.18;;;;;;;;;;5078486;28;20087;-79
2023/10/01 01:55:29;;;;;;;18.63;16.10;;;;;;;;;;5078102;28;20055;-79
2023/10/01 01:58:23;;;;;;;16.73;14.93;;;;;;;;;;5078462;28;20443;-79
2023/10/01 02:03:32;;;;;;;21.40;15.90;;;;;;;;;;5077951;28;20475;-79
2023/10/01 02:05:59;;;;;;;16.95;15.20;;;;;;;;;;5061548;28;20051;-79
2023/10/01 02:11:10;;;;;;;19.15;15.70;;;;;;;;;;5077701;28;20048;-77
2023/10/01 02:13:45;;;;;;;19.10;16.65;;;;;;;;;;5078759;28;20069;-77
2023/10/01 02:16:18;;;;;;;20.35;15.75;;;;;;;;;;5078065;28;20054;-77
2023/10/01 02:18:56;;;;;;;19.13;15.90;;;;;;;;;;5078633;28;20431;-77
2023/10/01 02:21:42;;;;;;;18.27;15.98;;;;;;;;;;5078540;28;20058;-77
2023/10/01 02:24:11;;;;;;;17.65;15.40;;;;;;;;;;5077722;28;20491;-77
2023/10/01 02:26:38;;;;;;;19.00;15.50;;;;;;;;;;5077393;28;20063;-77
2023/10/01 02:29:05;;;;;;;20.77;16.20;;;;;;;;;;5060970;28;20052;-77
2023/10/01 02:31:39;;;;;;;18.80;16.00;;;;;;;;;;5095407;28;20052;-77
2023/10/01 02:34:11;;;;;;;19.13;15.48;;;;;;;;;;5078004;28;20047;-77
2023/10/01 02:36:42;;;;;;;19.10;16.40;;;;;;;;;;5045049;28;20040;-77
2023/10/01 02:39:19;;;;;;;17.48;14.45;;;;;;;;;;5077722;28;20438;-76
2023/10/01 02:42:03;;;;;;;18.92;14.52;;;;;;;;;;5095424;28;20060;-77
2023/10/01 02:44:31;;;;;;;19.43;14.77;;;;;;;;;;5077604;28;20048;-77
2023/10/01 02:47:03;;;;;;;18.40;16.23;;;;;;;;;;5077515;28;20044;-76
2023/10/01 02:49:32;;;;;;;17.10;14.90;;;;;;;;;;5076946;28;20055;-77
2023/10/01 02:52:03;;;;;;;18.75;14.98;;;;;;;;;;5077932;28;20040;-77
2023/10/01 02:54:30;;;;;;;19.13;15.30;;;;;;;;;;5077813;28;20397;-76
2023/10/01 02:57:12;;;;;;;19.67;15.48;;;;;;;;;;5077046;28;20083;-76
2023/10/01 03:02:33;;;;;;;19.23;14.95;;;;;;;;;;5063710;28;20052;-77
2023/10/01 03:05:05;;;;;;;16.85;15.00;;;;;;;;;;5077216;28;20052;-77
2023/10/01 03:07:38;;;;;;;16.33;14.63;;;;;;;;;;5060156;28;20051;-77
2023/10/01 03:10:12;;;;;;;15.73;14.13;;;;;;;;;;5059909;28;20131;-76
2023/10/01 03:12:40;;;;;;;16.50;14.75;;;;;;;;;;5077688;28;20071;-77
2023/10/01 03:17:39;;;;;;;15.68;14.02;;;;;;;;;;5094595;28;20113;-77
2023/10/01 03:22:53;;;;;;;16.38;13.63;;;;;;;;;;5076198;28;20051;-77
2023/10/01 03:25:28;;;;;;;20.08;14.73;;;;;;;;;;5044231;28;20048;-76
2023/10/01 03:27:58;;;;;;;19.85;15.10;;;;;;;;;;5061150;28;20071;-76
2023/10/01 03:30:31;;;;;;;19.30;15.75;;;;;;;;;;5060142;28;20080;-77
2023/10/01 03:33:01;;;;;;;17.42;14.70;;;;;;;;;;5077295;28;20052;-77
2023/10/01 03:35:27;;;;;;;15.75;13.75;;;;;;;;;;5059664;28;20040;-77
2023/10/01 03:38:10;;;;;;;19.38;13.65;;;;;;;;;;5076572;28;20046;-77
2023/10/01 03:40:57;;;;;;;17.33;13.43;;;;;;;;;;5077219;28;20093;-77
2023/10/01 03:43:31;;;;;;;14.73;12.57;;;;;;;;;;5075775;28;20044;-77
2023/10/01 03:48:58;;;;;;;22.55;13.57;;;;;;;;;;5076173;28;20055;-76
2023/10/01 03:54:20;;;;;;;14.85;11.68;;;;;;;;;;5075295;28;20404;-77
2023/10/01 03:56:56;;;;;;;15.57;12.45;;;;;;;;;;5076097;28;20377;-76
2023/10/01 03:59:23;;;;;;;13.80;11.98;;;;;;;;;;5076088;28;20055;-77
2023/10/01 04:01:58;;;;;;;17.40;13.20;;;;;;;;;;5076019;28;20040;-77
2023/10/01 04:04:28;;;;;;;14.95;12.45;;;;;;;;;;5076950;28;20444;-76
2023/10/01 04:06:56;;;;;;;15.23;13.23;;;;;;;;;;5093866;28;20111;-76
2023/10/01 04:09:26;;;;;;;14.25;12.45;;;;;;;;;;5059251;28;20127;-77
2023/10/01 04:11:53;;;;;;;18.55;12.02;;;;;;;;;;5075973;28;20055;-76
2023/10/01 04:14:19;;;;;;;14.65;12.18;;;;;;;;;;5093523;28;20492;-76
2023/10/01 04:16:48;;;;;;;15.48;12.55;;;;;;;;;;5059879;28;20083;-76
2023/10/01 04:19:18;;;;;;;16.70;12.27;;;;;;;;;;5076136;28;20090;-76
2023/10/01 04:21:50;;;;;;;13.00;11.68;;;;;;;;;;5092415;28;20047;-77
2023/10/01 04:24:21;;;;;;;15.73;11.43;;;;;;;;;;5056156;28;20064;-77
2023/10/01 04:26:48;;;;;;;15.05;12.05;;;;;;;;;;5040730;28;20048;-76
2023/10/01 04:29:16;;;;;;;15.23;11.75;;;;;;;;;;5055779;28;20059;-76
2023/10/01 04:31:48;;;;;;;14.98;11.80;;;;;;;;;;5073471;28;20048;-76
2023/10/01 04:34:15;;;;;;;17.25;11.73;;;;;;;;;;5039368;28;20056;-76
2023/10/01 04:36:54;;;;;;;13.82;11.65;;;;;;;;;;5055492;28;20041;-76
2023/10/01 04:39:20;;;;;;;13.48;11.07;;;;;;;;;;5055688;28;20070;-76
2023/10/01 04:41:46;;;;;;;15.68;12.10;;;;;;;;;;5055665;28;20052;-76
2023/10/01 04:44:19;;;;;;;14.63;11.60;;;;;;;;;;5039081;28;20481;-76
2023/10/01 04:46:46;;;;;;;13.05;11.48;;;;;;;;;;5056422;28;20083;-76
2023/10/01 04:49:27;;;;;;;16.55;12.40;;;;;;;;;;5055795;28;20415;-76
2023/10/01 04:51:58;;;;;;;13.40;12.00;;;;;;;;;;5056379;28;20170;-76
2023/10/01 04:54:26;;;;;;;17.55;11.98;;;;;;;;;;5073719;28;20492;-76
2023/10/01 04:56:55;;;;;;;16.83;11.95;;;;;;;;;;5055500;28;20056;-76
2023/10/01 04:59:21;;;;;;;15.60;11.15;;;;;;;;;;5038870;28;20139;-76
2023/10/01 05:01:47;;;;;;;13.00;11.02;;;;;;;;;;5039626;28;20056;-79
2023/10/01 05:04:14;;;;;;;14.57;10.52;;;;;;;;;;5056137;28;20060;-76
2023/10/01 05:06:59;;;;;;;14.15;11.23;;;;;;;;;;5059076;28;20064;-76
2023/10/01 05:09:26;;;;;;;;;;;;;;;;;;5059569;28;20580;-76
2023/10/01 05:11:55;;;;;;;11.98;9.30;;;;;;;;;;5058563;28;19927;-76
2023/10/01 05:14:22;;;;;;;11.93;9.60;;;;;;;;;;5059247;28;20056;-76
2023/10/01 05:16:49;;;;;;;16.77;10.95;;;;;;;;;;5058741;28;20045;-76
2023/10/01 05:19:19;;;;;;;15.25;11.02;;;;;;;;;;5059731;28;20044;-76
2023/10/01 05:21:49;;;;;;;14.23;10.80;;;;;;;;;;5058383;28;20430;-76
2023/10/01 05:24:31;;;;;;;18.00;11.60;;;;;;;;;;5059716;28;20057;-76
2023/10/01 05:27:00;;;;;;;12.43;10.15;;;;;;;;;;5042140;28;20071;-76
2023/10/01 05:29:26;;;;;;;17.20;11.55;;;;;;;;;;5076350;28;20451;-76
2023/10/01 05:31:55;;;;;;;15.35;11.50;;;;;;;;;;5058630;28;20047;-76
2023/10/01 05:34:22;;;;;;;13.40;10.88;;;;;;;;;;5058627;28;20056;-76
2023/10/01 05:36:52;;;;;;;14.57;11.02;;;;;;;;;;5059169;28;20133;-76
2023/10/01 05:39:20;;;;;;;12.65;9.82;;;;;;;;;;5041847;28;20052;-76
2023/10/01 05:41:46;;;;;;;15.15;10.75;;;;;;;;;;5058456;28;20105;-76
2023/10/01 05:44:14;;;;;;;18.63;11.35;;;;;;;;;;5058705;28;20056;-76
2023/10/01 05:46:40;;;;;;;13.40;10.18;;;;;;;;;;5076097;28;20059;-77
2023/10/01 05:49:08;;;;;;;13.02;9.82;;;;;;;;;;5058314;28;20044;-76
2023/10/01 05:51:45;;;;;;;13.15;9.73;;;;;;;;;;5042290;28;20066;-76
2023/10/01 05:54:14;;;;;;;14.85;10.10;;;;;;;;;;5043456;28;20504;-76
2023/10/01 05:56:47;;;;;;;17.60;9.88;;;;;;;;;;5057944;28;20116;-76
2023/10/01 05:59:14;;;;;;;16.15;11.45;;;;;;;;;;5059051;28;20056;-76
2023/10/01 06:01:41;;;;;;;15.75;11.57;;;;;;;;;;5075494;28;20438;-76
2023/10/01 06:04:12;;;;;;;16.17;11.38;;;;;;;;;;5041629;28;20048;-76
2023/10/01 06:06:42;;;;;;;16.90;10.30;;;;;;;;;;5058960;28;20056;-76
2023/10/01 06:09:09;;;;;;;13.75;10.70;;;;;;;;;;5058231;28;20052;-76
2023/10/01 06:11:38;;;;;;;13.05;9.82;;;;;;;;;;5057916;28;20102;-76
2023/10/01 06:14:05;;;;;;;14.23;10.45;;;;;;;;;;5057679;28;20051;-76
2023/10/01 06:16:37;;;;;;;13.82;10.05;;;;;;;;;;5056893;28;20048;-76
2023/10/01 06:19:04;;;;;;;13.38;11.18;;;;;;;;;;5057856;28;20102;-76
2023/10/01 06:21:31;;;;;;;13.68;10.68;;;;;;;;;;5058270;28;20380;-76
2023/10/01 06:23:58;;;;;;;13.63;10.90;;;;;;;;;;5043978;28;20055;-76
2023/10/01 06:26:36;;;;;;;16.77;10.65;;;;;;;;;;5078484;28;20483;-76
2023/10/01 06:29:02;;;;;;;14.18;10.50;;;;;;;;;;5077892;28;20058;-76
2023/10/01 06:31:29;;;;;;;16.48;10.57;;;;;;;;;;5077577;28;20044;-76
2023/10/01 06:33:57;;;;;;;16.83;10.98;;;;;;;;;;5077768;28;20395;-76
2023/10/01 06:36:25;;;;;;;13.52;10.45;;;;;;;;;;5077256;28;20102;-76
2023/10/01 06:38:54;;;;;;;13.13;10.50;;;;;;;;;;5060486;28;20055;-76
2023/10/01 06:41:25;;;;;;;15.13;10.38;;;;;;;;;;5060888;28;20051;-76
2023/10/01 06:43:54;;;;;;;14.32;10.18;;;;;;;;;;5061463;28;20055;-77
2023/10/01 06:46:27;;;;;;;14.85;9.88;;;;;;;;;;5077776;28;20396;-78
2023/10/01 06:48:56;;;;;;;14.38;10.02;;;;;;;;;;5078040;28;20044;-78
2023/10/01 06:51:24;;;;;;;13.30;10.32;;;;;;;;;;5060246;28;20055;-76
2023/10/01 06:54:05;;;;;;;16.13;10.07;;;;;;;;;;5077387;28;20079;-76
2023/10/01 06:56:33;;;;;;;13.48;9.73;;;;;;;;;;5060239;28;20059;-77
2023/10/01 07:01:42;;;;;;;14.00;10.27;;;;;;;;;;5077813;28;20059;-76
2023/10/01 07:04:09;;;;;;;15.98;10.48;;;;;;;;;;5077780;28;20185;-77
2023/10/01 07:06:36;;;;;;;15.52;10.55;;;;;;;;;;5060525;28;20055;-78
2023/10/01 07:09:02;;;;;;;13.27;10.48;;;;;;;;;;5076812;28;20044;-77
2023/10/01 07:11:29;;;;;;;16.50;11.00;;;;;;;;;;5076813;28;20441;-77
2023/10/01 07:13:56;;;;;;;16.70;10.70;;;;;;;;;;5076784;28;20056;-77
2023/10/01 07:16:44;;;;;;;14.30;10.65;;;;;;;;;;5076483;28;20040;-78
2023/10/01 07:19:12;;;;;;;16.05;10.13;;;;;;;;;;5075950;28;20040;-77
2023/10/01 07:21:41;;;;;;;15.55;10.60;;;;;;;;;;5093581;28;20051;-77
2023/10/01 07:24:10;;;;;;;14.05;9.88;;;;;;;;;;5056580;28;20045;-77
2023/10/01 07:26:40;;;;;;;13.73;10.15;;;;;;;;;;5056559;28;20492;-77
2023/10/01 07:29:09;;;;;;;12.77;10.43;;;;;;;;;;5056448;28;20052;-77
2023/10/01 07:31:38;;;;;;;13.93;9.98;;;;;;;;;;5040208;28;20044;-77
2023/10/01 07:34:14;;;;;;;12.27;9.77;;;;;;;;;;5039619;28;20502;-77
2023/10/01 07:36:43;;;;;;;18.92;10.48;;;;;;;;;;5074083;28;20036;-77
2023/10/01 07:39:13;;;;;;;17.58;10.40;;;;;;;;;;5057092;28;20048;-77
2023/10/01 07:41:39;;;;;;;12.63;8.77;;;;;;;;;;5056550;28;20040;-77
2023/10/01 07:44:11;;;;;;;16.90;10.05;;;;;;;;;;5040084;28;20093;-77
2023/10/01 07:46:37;;;;;;;12.95;9.15;;;;;;;;;;5056266;28;20056;-77
2023/10/01 07:49:04;;;;;;;11.20;9.65;;;;;;;;;;5039732;28;20041;-77
2023/10/01 07:51:35;;;;;;;17.40;10.57;;;;;;;;;;5056128;28;20045;-77
2023/10/01 07:54:03;;;;;;;15.30;9.90;;;;;;;;;;5056112;28;20056;-77
2023/10/01 07:56:29;;;;;;;13.35;9.70;;;;;;;;;;5039672;28;20079;-77
2023/10/01 07:59:16;;;;;;;14.95;9.27;;;;;;;;;;5056393;28;20135;-77
2023/10/01 08:01:43;;;;;;;12.50;9.13;;;;;;;;;;5056346;28;20052;-77
2023/10/01 08:07:05;;;;;;;12.88;9.43;;;;;;;;;;5056226;28;20404;-77
2023/10/01 08:09:32;;;;;;;13.90;9.60;;;;;;;;;;5040346;28;20052;-77
2023/10/01 08:11:58;;;;;;;13.13;8.90;;;;;;;;;;5055938;28;20064;-77
2023/10/01 08:14:33;;;;;;;12.98;8.30;;;;;;;;;;5040194;28;20059;-77
2023/10/01 08:17:00;;;;;;;;;;;;;;;;;;5056953;28;20080;-77
2023/10/01 08:19:44;;;;;;;11.10;7.85;;;;;;;;;;5055821;28;20364;-77
2023/10/01 08:22:13;;;;;;;14.23;8.57;;;;;;;;;;5030076;28;20052;-77
2023/10/01 08:24:45;;;;;;;12.02;7.55;;;;;;;;;;5076415;28;20373;-77
2023/10/01 08:27:29;;;;;;;12.48;8.30;;;;;;;;;;5059990;28;20204;-77
2023/10/01 08:30:18;;;;;;;11.50;8.52;;;;;;;;;;5076680;28;20055;-77
2023/10/01 08:32:53;;;;;;;17.05;8.75;;;;;;;;;;5076518;28;20052;-77
2023/10/01 08:35:23;;;;;;;14.45;9.00;;;;;;;;;;5076568;28;20048;-77
2023/10/01 08:37:58;;;;;;;11.52;8.82;;;;;;;;;;5058718;28;20128;-77
2023/10/01 08:40:27;;;;;;;13.35;9.00;;;;;;;;;;5061439;28;20059;-78
2023/10/01 08:42:58;;;;;;;15.70;9.57;;;;;;;;;;5080397;28;20044;-77
2023/10/01 08:45:34;;;;;;;13.13;8.90;;;;;;;;;;5079656;28;20051;-77
2023/10/01 08:48:01;;;;;;;13.75;8.95;;;;;;;;;;5080477;28;20388;-77
2023/10/01 08:50:28;;;;;;;13.35;8.65;;;;;;;;;;5063218;28;20048;-77
2023/10/01 08:52:58;;;;;;;14.00;8.63;;;;;;;;;;5079964;28;20044;-77
2023/10/01 08:55:24;;;;;;;14.63;9.13;;;;;;;;;;5062703;28;20044;-77
2023/10/01 08:57:53;;;;;;;15.30;9.10;;;;;;;;;;5079112;28;20464;-77
2023/10/01 09:00:24;;;;;;;13.30;8.02;;;;;;;;;;5079344;28;20097;-77
2023/10/01 09:02:55;;;;;;;14.88;8.48;;;;;;;;;;5079986;28;20047;-77
2023/10/01 09:05:24;;;;;;;10.45;8.15;;;;;;;;;;5046188;28;20056;-77
2023/10/01 09:08:14;;;;;;;14.52;8.95;;;;;;;;;;5062175;28;20040;-77
2023/10/01 09:10:39;;;;;;;13.07;9.45;;;;;;;;;;5079006;28;20047;-77
2023/10/01 09:13:08;;;;;;;15.30;8.25;;;;;;;;;;5079878;28;20052;-77
2023/10/01 09:15:43;;;;;;;11.40;8.32;;;;;;;;;;5078980;28;20540;-77
2023/10/01 09:18:20;;;;;;;15.45;9.32;;;;;;;;;;5078970;28;20091;-77
2023/10/01 09:21:06;;;;;;;15.48;9.10;;;;;;;;;;5079191;28;20052;-77
2023/10/01 09:24:33;;;;;;;12.98;8.45;;;;;;;;;;5061694;28;20056;-77
2023/10/01 09:27:21;;;;;;;14.63;8.82;;;;;;;;;;5096518;28;20132;-77
2023/10/01 09:29:56;;;;;;;12.93;8.63;;;;;;;;;;5079033;28;20058;-77
2023/10/01 09:32:49;;;;;;;13.85;9.13;;;;;;;;;;5078973;28;20106;-78
2023/10/01 09:35:30;;;;;;;11.20;8.00;;;;;;;;;;5079489;28;20055;-77
2023/10/01 09:38:10;;;;;;;14.57;9.35;;;;;;;;;;5078682;28;20496;-77
2023/10/01 09:40:44;;;;;;;14.00;8.93;;;;;;;;;;5078888;28;20044;-77
2023/10/01 09:43:33;;;;;;;13.52;9.00;;;;;;;;;;5078533;28;20048;-77
2023/10/01 09:46:00;;;;;;;13.55;8.93;;;;;;;;;;5078794;28;20130;-77
2023/10/01 09:48:30;;;;;;;15.98;9.73;;;;;;;;;;5061830;28;20454;-77
2023/10/01 09:51:18;;;;;;;15.18;9.02;;;;;;;;;;5078007;28;20413;-77
2023/10/01 09:53:51;;;;;;;15.77;10.10;;;;;;;;;;5078250;28;20048;-77
2023/10/01 09:56:29;;;;;;;13.48;8.50;;;;;;;;;;5078125;28;20526;-77
2023/10/01 09:58:59;;;;;;;13.55;8.90;;;;;;;;;;5096081;28;20142;-77
2023/10/01 10:01:30;;;;;;;15.68;9.57;;;;;;;;;;5061536;28;20133;-78
2023/10/01 10:04:01;;;;;;;16.83;8.90;;;;;;;;;;5061494;28;20059;-77
2023/10/01 10:06:29;;;;;;;14.50;8.98;;;;;;;;;;5078438;28;20051;-77
2023/10/01 10:09:05;;;;;;;15.63;8.80;;;;;;;;;;5061413;28;20554;-77
2023/10/01 10:11:39;;;;;;;14.48;8.75;;;;;;;;;;5077791;28;20047;-77
2023/10/01 10:14:25;;;;;;;15.88;9.52;;;;;;;;;;5078795;28;20476;-77
2023/10/01 10:16:59;;;;;;;13.75;9.00;;;;;;;;;;5077751;28;20484;-78
2023/10/01 10:19:33;;;;;;;14.35;9.32;;;;;;;;;;5077904;28;20044;-77
2023/10/01 10:22:10;;;;;;;15.20;9.68;;;;;;;;;;5060345;28;20048;-78
2023/10/01 10:24:47;;;;;;;14.13;8.75;;;;;;;;;;5058041;28;20054;-77
2023/10/01 10:27:22;;;;;;;15.65;9.18;;;;;;;;;;5058519;28;20109;-77
2023/10/01 10:29:56;;;;;;;16.52;9.65;;;;;;;;;;5057538;28;20059;-78
2023/10/01 10:32:26;;;;;;;13.98;9.32;;;;;;;;;;5057830;28;20060;-78
2023/10/01 10:35:08;;;;;;;14.75;9.95;;;;;;;;;;5058428;28;20052;-78
2023/10/01 10:37:44;;;;;;;13.65;9.75;;;;;;;;;;5041384;28;20103;-78
2023/10/01 10:42:46;;;;;;;14.77;9.45;;;;;;;;;;5057643;28;20052;-78
2023/10/01 10:45:24;;;;;;;15.00;8.57;;;;;;;;;;5057241;28;20056;-77
2023/10/01 10:48:04;;;;;;;13.18;9.15;;;;;;;;;;5057599;28;20492;-78
2023/10/01 10:50:45;;;;;;;14.27;9.60;;;;;;;;;;5040696;28;20503;-78
2023/10/01 10:53:19;;;;;;;12.77;8.75;;;;;;;;;;5041422;28;20056;-78
2023/10/01 10:56:01;;;;;;;16.10;9.27;;;;;;;;;;5057412;28;20124;-78
2023/10/01 10:59:14;;;;;;;15.23;9.65;;;;;;;;;;5056751;28;20040;-78
2023/10/01 11:01:20;;;;;;;16.15;9.07;;;;;;;;;;5043301;28;20463;-78
2023/10/01 11:03:47;;;;;;;14.07;9.98;;;;;;;;;;5057125;28;20056;-77
2023/10/01 11:06:16;;;;;;;14.52;8.63;;;;;;;;;;5040328;28;20044;-78
2023/10/01 11:08:50;;;;;;;15.23;8.75;;;;;;;;;;5056801;28;20047;-78
2023/10/01 11:11:20;;;;;;;15.20;8.88;;;;;;;;;;5057156;28;20635;-77
2023/10/01 11:13:46;;;;;;;14.43;8.82;;;;;;;;;;5040744;28;20145;-78
2023/10/01 11:16:16;;;;;;;13.93;7.95;;;;;;;;;;5056590;28;20051;-78
2023/10/01 11:18:44;;;;;;;14.73;8.88;;;;;;;;;;5040057;28;20048;-78
2023/10/01 11:21:31;;;;;;;13.57;8.68;;;;;;;;;;5057469;28;20052;-78
2023/10/01 11:24:00;;;;;;;13.48;8.30;;;;;;;;;;5041116;28;20056;-78
2023/10/01 11:26:27;;;;;;;12.82;8.82;;;;;;;;;;5076282;28;20491;-78
2023/10/01 11:28:57;;;;;;;13.80;8.60;;;;;;;;;;5076477;28;20086;-78
2023/10/01 11:31:27;;;;;;;12.07;8.07;;;;;;;;;;5061284;28;20059;-78
2023/10/01 11:33:58;;;;;;;14.45;8.43;;;;;;;;;;5059783;28;20083;-78
2023/10/01 11:36:24;;;;;;;12.85;8.10;;;;;;;;;;5076220;28;20044;-78
2023/10/01 11:38:50;;;;;;;14.30;8.50;;;;;;;;;;5059992;28;20365;-78
2023/10/01 11:41:38;;;;;;;13.32;8.23;;;;;;;;;;5059764;28;20055;-77
2023/10/01 11:44:03;;;;;;;12.15;8.68;;;;;;;;;;5076455;28;20156;-78
2023/10/01 11:46:35;;;;;;;13.68;8.68;;;;;;;;;;5076299;28;20373;-78
2023/10/01 11:49:08;;;;;;;12.85;7.90;;;;;;;;;;5076293;28;20480;-78
2023/10/01 11:51:45;;;;;;;15.30;8.23;;;;;;;;;;5076238;28;20044;-78
2023/10/01 11:54:14;;;;;;;15.13;7.95;;;;;;;;;;5060419;28;20142;-78
2023/10/01 11:56:40;;;;;;;13.35;8.40;;;;;;;;;;5076588;28;20052;-78
2023/10/01 11:59:08;;;;;;;13.55;8.20;;;;;;;;;;5076070;28;20155;-77
2023/10/01 12:01:47;;;;;;;12.70;7.47;;;;;;;;;;5059289;28;20048;-78
2023/10/01 12:04:43;;;;;;;12.93;7.70;;;;;;;;;;5059298;28;20078;-78
2023/10/01 12:07:16;;;;;;;12.55;8.68;;;;;;;;;;5076940;28;20059;-78
2023/10/01 12:09:48;;;;;;;12.73;7.93;;;;;;;;;;5076275;28;20044;-78
2023/10/01 12:12:14;;;;;;;11.88;6.75;;;;;;;;;;5076277;28;20044;-78
2023/10/01 12:14:53;;;;;;;12.13;7.43;;;;;;;;;;5058466;28;20047;-78
2023/10/01 12:17:23;;;;;;;11.55;7.78;;;;;;;;;;5076504;28;20044;-78
2023/10/01 12:19:59;;;;;;;13.30;8.27;;;;;;;;;;5059142;28;20090;-78
2023/10/01 12:22:27;;;;;;;11.57;7.15;;;;;;;;;;5056126;28;20068;-78
2023/10/01 12:24:57;;;;;;;13.73;8.30;;;;;;;;;;5056397;28;20076;-78
2023/10/01 12:27:37;;;;;;;11.25;7.53;;;;;;;;;;5056407;28;20059;-78
2023/10/01 12:30:04;;;;;;;14.30;7.53;;;;;;;;;;5056469;28;20044;-78
2023/10/01 12:32:41;;;;;;;11.05;7.60;;;;;;;;;;5054928;28;20055;-77
2023/10/01 12:35:18;;;;;;;10.73;6.78;;;;;;;;;;5039260;28;20086;-78
2023/10/01 12:37:45;;;;;;;9.80;6.68;;;;;;;;;;5038308;28;20047;-78
2023/10/01 12:40:16;;;;;;;13.05;7.25;;;;;;;;;;5056350;28;20052;-78
2023/10/01 12:42:50;;;;;;;13.93;6.47;;;;;;;;;;5055669;28;20510;-78
2023/10/01 12:45:19;;;;;;;13.40;7.38;;;;;;;;;;5056418;28;20127;-77
2023/10/01 12:47:51;;;;;;;12.70;7.50;;;;;;;;;;5039539;28;20171;-80
2023/10/01 12:50:26;;;;;;;10.00;6.43;;;;;;;;;;5056315;28;20101;-78
2023/10/01 12:53:18;;;;;;;11.13;7.05;;;;;;;;;;5039238;28;20159;-78
2023/10/01 12:55:54;;;;;;;11.30;6.93;;;;;;;;;;5054971;28;20064;-78
2023/10/01 12:58:36;;;;;;;9.57;6.00;;;;;;;;;;5055509;28;20052;-78
2023/10/01 13:04:22;;;;;;;9.85;6.22;;;;;;;;;;4984239;28;20053;-78
2023/10/01 13:06:52;;;;;;;7.55;4.95;;;;;;;;;;5048553;28;20060;-78
2023/10/01 13:12:13;;;;;;;10.25;6.65;;;;;;;;;;5055322;28;20473;-78
2023/10/01 13:14:40;;;;;;;10.38;6.53;;;;;;;;;;5055662;28;20053;-78
2023/10/01 13:17:19;;;;;;;9.10;6.32;;;;;;;;;;5055389;28;20464;-78
2023/10/01 13:19:48;;;;;;;10.10;6.00;;;;;;;;;;5039583;28;20051;-78
2023/10/01 13:22:18;;;;;;;7.38;5.82;;;;;;;;;;5055008;28;20045;-78
2023/10/01 13:24:53;;;;;;;11.50;5.53;;;;;;;;;;5055518;28;20064;-78
2023/10/01 13:27:20;;;;;;;13.23;5.78;;;;;;;;;;5059641;28;20044;-78
2023/10/01 13:29:49;;;;;;;7.97;5.47;;;;;;;;;;5042327;28;20048;-79
2023/10/01 13:32:16;;;;;;;9.20;5.18;;;;;;;;;;5042460;28;20052;-78
2023/10/01 13:34:48;;;;;;;8.10;5.97;;;;;;;;;;5058491;28;20131;-78
2023/10/01 14:10:45;;;;;;;7.57;5.07;;;;;;;;;;5058302;28;19977;-78
2023/10/01 14:13:24;;;;;;;9.15;5.35;;;;;;;;;;5058004;28;20134;-78
2023/10/01 14:15:50;;;;;;;8.15;5.78;;;;;;;;;;5058710;28;20051;-78
2023/10/01 14:18:34;;;;;;;7.82;5.32;;;;;;;;;;5041297;28;20064;-78
2023/10/01 14:21:12;;;;;;;11.27;5.63;;;;;;;;;;5044104;28;20102;-78
2023/10/01 14:23:44;;;;;;;9.02;5.88;;;;;;;;;;5055334;28;20142;-78
2023/10/01 14:26:12;;;;;;;8.40;5.35;;;;;;;;;;5060788;28;20044;-78
2023/10/01 14:28:39;;;;;;;9.13;5.57;;;;;;;;;;5060966;28;20044;-78
2023/10/01 14:31:08;;;;;;;8.07;5.55;;;;;;;;;;5077324;28;20040;-78
2023/10/01 14:33:39;;;;;;;7.90;5.30;;;;;;;;;;5060814;28;20044;-78
2023/10/01 14:36:05;;;;;;;7.93;5.30;;;;;;;;;;5078328;28;20048;-78
2023/10/01 14:38:40;;;;;;;10.38;6.28;;;;;;;;;;5076883;28;20051;-78
2023/10/01 14:41:10;;;;;;;7.63;5.60;;;;;;;;;;5061153;28;20079;-78
2023/10/01 14:43:51;;;;;;;10.57;5.40;;;;;;;;;;5061726;28;20170;-78
2023/10/01 14:46:30;;;;;;;6.03;4.88;;;;;;;;;;5076879;28;20052;-78
2023/10/01 14:49:04;;;;;;;9.10;5.75;;;;;;;;;;5095717;28;20052;-78
2023/10/01 14:51:34;;;;;;;8.18;5.45;;;;;;;;;;5078071;28;20090;-78
2023/10/01 14:54:01;;;;;;;9.05;5.55;;;;;;;;;;5095581;28;20051;-78
2023/10/01 14:56:31;;;;;;;8.48;5.13;;;;;;;;;;5076949;28;20051;-78
2023/10/01 14:59:00;;;;;;;7.07;5.55;;;;;;;;;;5077071;28;20160;-78
2023/10/01 15:01:28;;;;;;;7.20;5.40;;;;;;;;;;5077054;28;20132;-78
2023/10/01 15:03:54;;;;;;;7.30;5.93;;;;;;;;;;5060364;28;20140;-78
2023/10/01 15:06:21;;;;;;;8.05;5.70;;;;;;;;;;5077237;28;20130;-79
2023/10/01 15:08:48;;;;;;;10.05;5.80;;;;;;;;;;5076930;28;20135;-81
2023/10/01 15:11:14;;;;;;;8.13;5.68;;;;;;;;;;5076563;28;20044;-78
2023/10/01 15:13:50;;;;;;;9.15;5.60;;;;;;;;;;5060290;28;20459;-81
2023/10/01 15:16:17;;;;;;;8.48;6.60;;;;;;;;;;5060993;28;20136;-80
2023/10/01 15:18:44;;;;;;;8.10;5.90;;;;;;;;;;5077287;28;20079;-79
2023/10/01 15:21:20;;;;;;;8.98;6.60;;;;;;;;;;5060772;28;20061;-78
2023/10/01 15:23:59;;;;;;;9.73;6.70;;;;;;;;;;5076374;28;20143;-78
2023/10/01 15:26:26;;;;;;;9.05;6.88;;;;;;;;;;5076547;28;20113;-78
2023/10/01 15:28:52;;;;;;;11.40;7.00;;;;;;;;;;5076541;28;20039;-78
2023/10/01 15:31:33;;;;;;;11.82;7.80;;;;;;;;;;5076499;28;20113;-78
2023/10/01 15:34:02;;;;;;;12.65;8.15;;;;;;;;;;5076682;28;20373;-78
2023/10/01 15:36:46;;;;;;;11.73;8.15;;;;;;;;;;5059655;28;20044;-78
2023/10/01 15:42:15;;;;;;;10.45;7.30;;;;;;;;;;5076615;28;20047;-77
2023/10/01 15:44:45;;;;;;;11.07;8.00;;;;;;;;;;5076310;28;20048;-78
2023/10/01 15:47:11;;;;;;;11.32;7.53;;;;;;;;;;5059170;28;20127;-78
2023/10/01 15:49:40;;;;;;;10.20;7.88;;;;;;;;;;5075277;28;20140;-78
2023/10/01 15:52:11;;;;;;;12.48;8.77;;;;;;;;;;5076485;28;20189;-77
2023/10/01 15:54:38;;;;;;;9.32;7.25;;;;;;;;;;5060338;28;20426;-78
2023/10/01 15:57:04;;;;;;;12.45;7.80;;;;;;;;;;5058976;28;20392;-78
2023/10/01 15:59:31;;;;;;;10.80;8.15;;;;;;;;;;5059467;28;20052;-78
2023/10/01 16:01:59;;;;;;;11.02;7.78;;;;;;;;;;5059476;28;20446;-77